• Join FlightAware (Why Join?)
  • Login
  • US Flag 
10:24PM EDT


 

Airport Tracker/Info


-or-


 

Live Flight TrackerFlight Track Log ✈ ASQ5963 ✈ 11-Jul-2013 ✈ KIAH - KTYS

Flight Track Log - Related Links

Times and Time Zones

All times are in EDT time to prevent confusion due to time zone crossing. See the ASQ5963 flight status page for this flight to view local times or setup timezone preferences in your user account.

Time Position Orientation Groundspeed Altitude Reporting Facility
EDT Latitude Longitude Course Direction KTS MPH feet Rate Location/Type
02:03PM 29.9547 -95.3347 90° East 180 207 1,000  Level Houston Center
02:05PM 29.9003 -95.2542 128° Southeast 221 254 3,200 1,620 Climbing Houston Center
02:06PM 29.9834 -94.9488 90° East  Level FlightAware Approximate
02:06PM 29.8928 -95.1714 96° East 254 292 5,400  Level Houston Center
02:07PM 29.9834 -94.8206 90° East  Level FlightAware Approximate
02:07PM 29.8864 -95.0858 95° East 264 304 7,300  Level Houston Center
02:08PM 29.9834 -94.6924 90° East  Level FlightAware Approximate
02:08PM 29.8944 -94.9828 85° East 277 319 9,600  Level Houston Center
02:09PM 29.9089 -94.8883 80° East 287 330 10,900 1,080 Climbing Houston Center
02:10PM 29.9242 -94.7869 80° East 315 362 11,900 960 Climbing Houston Center
02:11PM 29.9408 -94.6800 80° East 335 386 13,000 1,080 Climbing Houston Center
02:12PM 29.9575 -94.5714 80° East 342 394 14,200 1,020 Climbing Houston Center
02:13PM 29.9731 -94.4603 81° East 350 403 15,200 960 Climbing Houston Center
02:14PM 29.9894 -94.3472 80° East 358 412 16,200 960 Climbing Houston Center
02:15PM 30.0039 -94.2331 82° East 360 414 17,200 960 Climbing Houston Center
02:16PM 30.0217 -94.0958 81° East 364 419 18,300 960 Climbing Houston Center
02:17PM 30.0358 -93.9792 82° East 366 421 19,200 900 Climbing Houston Center
02:18PM 30.0500 -93.8619 82° East 371 427 20,200 900 Climbing Houston Center
02:19PM 30.0658 -93.7439 81° East 374 430 21,100 840 Climbing Houston Center
02:20PM 30.0794 -93.6244 82° East 377 434 22,000 840 Climbing Houston Center
02:21PM 30.0919 -93.5083 83° East 373 429 22,900 900 Climbing Houston Center
02:22PM 30.1092 -93.3669 82° East 375 432 23,900 780 Climbing Houston Center
02:23PM 30.1236 -93.2478 82° East 378 435 24,600 720 Climbing Houston Center
02:24PM 30.1381 -93.1289 82° East 377 434 25,500 720 Climbing Houston Center
02:25PM 30.1850 -93.0222 63° Northeast 377 434 26,200 660 Climbing Houston Center
02:26PM 30.2414 -92.9211 57° Northeast 376 433 26,900 600 Climbing Houston Center
02:27PM 30.3086 -92.7958 58° Northeast 384 442 27,500 720 Climbing Houston Center
02:29PM 30.3656 -92.6933 57° Northeast 380 437 28,400 720 Climbing Houston Center
02:30PM 30.4192 -92.5925 58° Northeast 372 428 29,100 720 Climbing Houston Center
02:31PM 30.4833 -92.4758 57° Northeast 375 432 29,900 660 Climbing Houston Center
02:32PM 30.5378 -92.3733 58° Northeast 374 430 30,500 480 Climbing Houston Center
02:33PM 30.5933 -92.2714 58° Northeast 374 430 31,000 240 Climbing Houston Center
02:34PM 30.6628 -92.1772 49° Northeast 389 448 31,000  Level Houston Center
02:35PM 30.7597 -92.1133 30° Northeast 399 459 31,000  Level Houston Center
02:36PM 30.8606 -92.0456 30° Northeast 413 475 31,000  Level Houston Center
02:37PM 30.9850 -91.9636 29° Northeast 425 489 31,000  Level Houston Center
02:38PM 31.0892 -91.8958 29° Northeast 431 496 31,000  Level Houston Center
02:39PM 31.1942 -91.8264 29° Northeast 434 499 31,000  Level Houston Center
02:40PM 31.3014 -91.7567 29° Northeast 441 507 31,000  Level Houston Center
02:41PM 31.4075 -91.6853 30° Northeast 443 510 31,000  Level Houston Center
02:42PM 31.5344 -91.5997 30° Northeast 441 507 31,000  Level Houston Center
02:43PM 31.6419 -91.5292 29° Northeast 443 510 31,000  Level Houston Center
02:44PM 31.7483 -91.4569 30° Northeast 444 511 31,000  Level Houston Center
02:45PM 31.8558 -91.3856 29° Northeast 444 511 31,000  Level Houston Center
02:46PM 31.9642 -91.3128 30° Northeast 448 516 31,000  Level Houston Center
02:47PM 32.0714 -91.2392 30° Northeast 447 514 31,000  Level Houston Center
02:48PM 32.2008 -91.1514 30° Northeast 449 517 31,000  Level Houston Center
02:49PM 32.3083 -91.0778 30° Northeast 449 517 31,000  Level Houston Center
02:50PM 32.4189 -91.0028 30° Northeast 455 524 31,000  Level Houston Center
02:51PM 32.5244 -90.9192 34° Northeast 444 511 31,000  Level Memphis Center
02:52PM 32.5961 -90.7961 55° Northeast 439 505 31,000  Level Memphis Center
02:53PM 32.6569 -90.6731 60° Northeast 453 521 31,000  Level Memphis Center
02:54PM 32.7239 -90.5450 58° Northeast 458 527 31,000  Level Memphis Center
02:55PM 32.7931 -90.4167 57° Northeast 458 527 31,000  Level Memphis Center
02:56PM 32.8619 -90.2831 58° Northeast 458 527 31,000  Level Memphis Center
02:57PM 32.9306 -90.1542 58° Northeast 458 527 31,000  Level Memphis Center
02:58PM 33.0014 -90.0228 57° Northeast 458 527 31,000  Level Memphis Center
02:59PM 33.0800 -89.8714 58° Northeast 464 534 31,000  Level Memphis Center
03:00PM 33.1464 -89.7344 60° Northeast 469 540 31,000  Level Memphis Center
03:01PM 33.2144 -89.6000 59° Northeast 475 547 31,000  Level Memphis Center
03:02PM 33.2844 -89.4650 58° Northeast 475 547 31,000  Level Memphis Center
03:03PM 33.3544 -89.3275 59° Northeast 475 547 31,000  Level Memphis Center
03:04PM 33.4242 -89.1925 58° Northeast 475 547 31,000  Level Memphis Center
03:05PM 33.4917 -89.0544 60° Northeast 480 552 31,000  Level Memphis Center
03:06PM 33.5592 -88.9164 60° Northeast 480 552 31,000  Level Memphis Center
03:07PM 33.6203 -88.7931 59° Northeast 475 547 31,000  Level Memphis Center
03:08PM 33.6892 -88.6519 60° Northeast 475 547 31,000  Level Memphis Center
03:09PM 33.7603 -88.5133 58° Northeast 475 547 31,000  Level Memphis Center
03:10PM 33.8269 -88.3742 60° Northeast 475 547 31,000  Level Memphis Center
03:11PM 33.8978 -88.2375 58° Northeast 475 547 31,000  Level Memphis Center
03:12PM 33.9742 -88.0753 60° Northeast 487 560 31,000  Level Memphis Center
03:13PM 34.0425 -87.9356 59° Northeast 492 566 31,000  Level Memphis Center
03:14PM 34.1169 -87.7906 58° Northeast 498 573 31,000  Level Memphis Center
03:15PM 34.1747 -87.6658 61° Northeast 488 562 31,000  Level Memphis Center
03:16PM 34.2425 -87.5231 60° Northeast 488 562 31,000  Level Memphis Center
03:18PM 34.3744 -87.2425 60° Northeast 481 554 31,000  Level Atlanta Center
03:19PM 34.4450 -87.0992 59° Northeast 481 554 31,000  Level Atlanta Center
03:20PM 34.5153 -86.9581 59° Northeast 481 554 31,000  Level Atlanta Center
03:21PM 34.5833 -86.8142 60° Northeast 481 554 31,000  Level Atlanta Center
03:22PM 34.6511 -86.6697 60° Northeast 481 554 31,000  Level Atlanta Center
03:23PM 34.7186 -86.5281 60° Northeast 481 554 31,000 -60 Level Atlanta Center
03:24PM 34.7883 -86.3833 60° Northeast 481 554 30,900 -780 Descending Atlanta Center
03:25PM 34.8536 -86.2383 61° Northeast 481 554 29,500 -1,560 Descending Atlanta Center
03:26PM 34.9253 -86.0831 61° Northeast 473 544 27,800 -1,560 Descending Atlanta Center
03:27PM 34.9817 -85.9375 65° Northeast 468 539 26,400 -900 Descending Atlanta Center
03:28PM 35.0361 -85.7917 65° Northeast 468 539 26,000 -300 Descending Atlanta Center
03:29PM 35.0903 -85.6506 65° Northeast 463 533 25,800 -540 Descending Atlanta Center
03:30PM 35.1419 -85.5042 67° East 458 527 25,000 -660 Descending Atlanta Center
03:31PM 35.2000 -85.3656 63° Northeast 458 527 24,500 -540 Descending Atlanta Center
03:32PM 35.2681 -85.2317 58° Northeast 458 527 24,000 -600 Descending Atlanta Center
03:33PM 35.3319 -85.0953 60° Northeast 458 527 23,300 -1,500 Descending Atlanta Center
03:34PM 35.3956 -84.9661 59° Northeast 453 521 21,100 -2,880 Descending Atlanta Center
03:35PM 35.4550 -84.8394 60° Northeast 439 505 17,600 -3,420 Descending Atlanta Center
03:36PM 35.5119 -84.7200 60° Northeast 426 490 14,300 -2,940 Descending Atlanta Center
03:37PM 35.5647 -84.6131 59° Northeast 395 455 11,800 -1,800 Descending Atlanta Center
03:38PM 35.6153 -84.5089 59° Northeast 367 422 10,700 -1,140 Descending Atlanta Center
03:39PM 35.6572 -84.4169 61° Northeast 332 382 9,600 -1,380 Descending Atlanta Center
03:40PM 35.7117 -84.3481 46° Northeast 298 343 8,000 -1,500 Descending Atlanta Center
03:41PM 35.7619 -84.2819 47° Northeast 274 315 6,600 -1,380 Descending Atlanta Center
03:42PM 35.8078 -84.2206 47° Northeast 254 292 5,300 -1,320 Descending Atlanta Center
03:43PM 35.8539 -84.1642 45° Northeast 241 277 4,000 -660 Descending Atlanta Center
03:44PM 35.8936 -84.1053 50° Northeast 236 272 4,000  Level Atlanta Center
03:45PM 35.9144 -84.0361 70° East 220 253 4,000  Level Atlanta Center